createdAt,value
2018-01-30T00:02:03.895Z,20.63
2018-01-30T00:04:31.731Z,19.87
2018-01-30T00:06:59.603Z,20.47
2018-01-30T00:09:27.497Z,18.83
2018-01-30T00:11:55.338Z,18.80
2018-01-30T00:14:23.174Z,17.97
2018-01-30T00:16:51.060Z,19.47
2018-01-30T00:19:19.758Z,19.13
2018-01-30T00:21:47.604Z,18.07
2018-01-30T00:24:15.606Z,18.57
2018-01-30T00:26:43.517Z,19.37
2018-01-30T00:29:11.349Z,19.30
2018-01-30T00:31:40.129Z,19.77
2018-01-30T00:34:08.085Z,19.70
2018-01-30T00:36:36.340Z,20.50
2018-01-30T00:39:04.315Z,21.23
2018-01-30T00:41:33.472Z,20.90
2018-01-30T00:44:01.304Z,21.10
2018-01-30T00:46:29.490Z,19.30
2018-01-30T00:48:57.322Z,19.67
2018-01-30T00:51:25.177Z,18.73
2018-01-30T00:53:53.074Z,19.23
2018-01-30T00:56:20.914Z,19.17
2018-01-30T00:58:48.743Z,21.37
2018-01-30T01:01:16.640Z,24.40
2018-01-30T01:03:44.490Z,20.80
2018-01-30T01:06:12.331Z,25.57
2018-01-30T01:08:40.215Z,25.73
2018-01-30T01:11:08.051Z,25.83
2018-01-30T01:13:35.879Z,27.83
2018-01-30T01:16:04.725Z,26.13
2018-01-30T01:18:32.578Z,24.10
2018-01-30T01:21:00.518Z,25.17
2018-01-30T01:23:28.959Z,24.60
2018-01-30T01:25:56.799Z,21.67
2018-01-30T01:28:24.642Z,20.47
2018-01-30T01:30:52.538Z,18.77
2018-01-30T01:33:20.378Z,25.30
2018-01-30T01:35:48.370Z,30.50
2018-01-30T01:38:16.258Z,24.17
2018-01-30T01:40:44.091Z,21.20
2018-01-30T01:43:11.923Z,21.03
2018-01-30T01:45:39.819Z,18.87
2018-01-30T01:48:07.652Z,20.23
2018-01-30T01:50:35.478Z,18.40
2018-01-30T01:53:03.406Z,18.30
2018-01-30T01:55:31.254Z,19.27
2018-01-30T01:57:59.082Z,17.90
2018-01-30T02:00:27.002Z,17.40
2018-01-30T02:02:55.758Z,17.17
2018-01-30T02:05:23.590Z,17.97
2018-01-30T02:07:51.774Z,17.07
2018-01-30T02:10:19.616Z,18.87
2018-01-30T02:12:48.119Z,19.93
2018-01-30T02:15:16.094Z,21.70
2018-01-30T02:17:43.942Z,22.73
2018-01-30T02:20:11.851Z,20.83
2018-01-30T02:22:39.983Z,19.40
2018-01-30T02:25:07.843Z,21.03
2018-01-30T02:27:35.754Z,21.60
2018-01-30T02:30:03.659Z,21.10
2018-01-30T02:32:31.497Z,19.80
2018-01-30T02:34:59.374Z,21.60
2018-01-30T02:37:27.358Z,21.33
2018-01-30T02:39:55.198Z,20.50
2018-01-30T02:42:23.762Z,20.03
2018-01-30T02:44:51.677Z,19.53
2018-01-30T02:47:19.513Z,19.87
2018-01-30T02:49:47.338Z,19.33
2018-01-30T02:52:15.251Z,21.17
2018-01-30T02:54:43.646Z,18.93
2018-01-30T02:57:11.477Z,18.17
2018-01-30T02:59:39.359Z,17.93
2018-01-30T03:02:07.198Z,18.07
2018-01-30T03:04:35.049Z,17.57
2018-01-30T03:07:04.384Z,17.23
2018-01-30T03:09:32.215Z,18.20
2018-01-30T03:12:00.063Z,17.47
2018-01-30T03:14:27.969Z,17.27
2018-01-30T03:16:55.814Z,17.00
2018-01-30T03:19:23.645Z,17.90
2018-01-30T03:21:53.586Z,19.77
2018-01-30T03:24:21.420Z,20.60
2018-01-30T03:26:49.275Z,20.43
2018-01-30T03:29:17.401Z,20.40
2018-01-30T03:31:45.294Z,19.10
2018-01-30T03:34:13.122Z,18.17
2018-01-30T03:36:41.931Z,17.00
2018-01-30T03:39:09.843Z,17.63
2018-01-30T03:41:38.067Z,16.23
2018-01-30T03:44:05.959Z,15.97
2018-01-30T03:46:33.786Z,16.57
2018-01-30T03:49:01.630Z,16.43
2018-01-30T03:51:29.515Z,16.83
2018-01-30T03:53:57.348Z,16.57
2018-01-30T03:56:25.282Z,16.23
2018-01-30T03:58:53.928Z,17.57
2018-01-30T04:01:21.768Z,17.60
2018-01-30T04:03:49.614Z,18.57
2018-01-30T04:06:17.520Z,18.03
2018-01-30T04:08:45.363Z,18.50
2018-01-30T04:11:13.218Z,18.13
2018-01-30T04:13:41.506Z,19.13
2018-01-30T04:16:09.390Z,19.17
2018-01-30T04:18:37.221Z,22.73
2018-01-30T04:21:05.143Z,22.20
2018-01-30T04:23:32.982Z,19.13
2018-01-30T04:26:00.818Z,19.00
2018-01-30T04:28:29.176Z,16.70
2018-01-30T04:30:57.034Z,16.53
2018-01-30T04:33:24.892Z,16.63
2018-01-30T04:35:52.777Z,17.30
2018-01-30T04:38:20.618Z,17.17
2018-01-30T04:40:49.022Z,18.17
2018-01-30T04:43:16.927Z,17.60
2018-01-30T04:45:44.759Z,17.40
2018-01-30T04:48:16.142Z,18.47
2018-01-30T04:50:44.011Z,17.43
2018-01-30T04:53:11.846Z,19.30
2018-01-30T04:55:39.689Z,19.60
2018-01-30T04:58:07.578Z,20.33
2018-01-30T05:00:35.482Z,19.60
2018-01-30T05:03:03.331Z,18.70
2018-01-30T05:05:31.217Z,19.67
2018-01-30T05:07:59.151Z,18.23
2018-01-30T05:10:27.007Z,19.33
2018-01-30T05:12:54.967Z,19.47
2018-01-30T05:15:22.815Z,20.37
2018-01-30T05:17:50.642Z,19.90
2018-01-30T05:20:18.633Z,19.83
2018-01-30T05:22:46.483Z,19.83
2018-01-30T05:25:14.319Z,20.30
2018-01-30T05:27:42.208Z,21.00
2018-01-30T05:30:10.142Z,21.77
2018-01-30T05:32:37.982Z,21.20
2018-01-30T05:35:06.159Z,22.07
2018-01-30T05:37:34.013Z,23.03
2018-01-30T05:40:01.878Z,24.30
2018-01-30T05:42:29.867Z,23.43
2018-01-30T05:44:57.735Z,22.10
2018-01-30T05:47:25.594Z,22.73
2018-01-30T05:49:53.489Z,24.57
2018-01-30T05:52:21.319Z,25.53
2018-01-30T05:54:49.711Z,24.03
2018-01-30T05:57:17.630Z,24.00
2018-01-30T05:59:45.487Z,26.00
2018-01-30T06:02:13.339Z,26.30
2018-01-30T06:04:41.206Z,25.93
2018-01-30T06:07:09.039Z,26.60
2018-01-30T06:09:36.880Z,29.57
2018-01-30T06:12:05.080Z,28.83
2018-01-30T06:14:32.930Z,29.97
2018-01-30T06:17:00.782Z,29.90
2018-01-30T06:19:28.842Z,29.90
2018-01-30T06:21:56.727Z,31.03
2018-01-30T06:24:24.599Z,32.50
2018-01-30T06:26:52.474Z,34.10
2018-01-30T06:29:20.326Z,37.30
2018-01-30T06:31:48.194Z,37.13
2018-01-30T06:34:16.515Z,35.50
2018-01-30T06:36:44.464Z,40.80
2018-01-30T06:39:12.324Z,40.87
2018-01-30T06:41:40.219Z,39.63
2018-01-30T06:44:08.143Z,39.97
2018-01-30T06:46:35.990Z,40.93
2018-01-30T06:49:03.906Z,43.67
2018-01-30T06:51:31.773Z,41.93
2018-01-30T06:53:59.607Z,38.93
2018-01-30T06:56:27.499Z,38.77
2018-01-30T06:58:55.348Z,39.63
2018-01-30T07:01:23.197Z,37.83
2018-01-30T07:03:51.144Z,39.90
2018-01-30T07:06:18.990Z,37.27
2018-01-30T07:08:46.875Z,40.70
2018-01-30T07:11:14.885Z,38.67
2018-01-30T07:13:42.796Z,43.60
2018-01-30T07:16:10.718Z,49.30
2018-01-30T07:18:38.602Z,40.00
2018-01-30T07:21:06.446Z,37.10
2018-01-30T07:23:34.331Z,37.67
2018-01-30T07:26:02.428Z,37.93
2018-01-30T07:28:30.274Z,34.37
2018-01-30T07:30:58.125Z,32.83
2018-01-30T07:33:26.012Z,33.50
2018-01-30T07:35:53.859Z,32.87
2018-01-30T07:38:21.701Z,32.67
2018-01-30T07:40:49.599Z,33.23
2018-01-30T07:43:17.436Z,33.10
2018-01-30T07:45:46.338Z,33.63
2018-01-30T07:48:14.309Z,35.27
2018-01-30T07:50:42.514Z,30.73
2018-01-30T07:53:10.354Z,31.20
2018-01-30T07:55:38.251Z,30.93
2018-01-30T07:58:06.110Z,29.63
2018-01-30T08:00:33.962Z,29.77
2018-01-30T08:03:02.767Z,29.57
2018-01-30T08:05:30.627Z,29.07
2018-01-30T08:07:58.487Z,28.90
2018-01-30T08:10:26.400Z,27.57
2018-01-30T08:12:54.240Z,29.03
2018-01-30T08:15:22.088Z,27.27
2018-01-30T08:17:49.990Z,25.63
2018-01-30T08:20:17.826Z,25.40
2018-01-30T08:22:45.658Z,25.47
2018-01-30T08:25:13.901Z,22.33
2018-01-30T08:27:41.844Z,24.63
2018-01-30T08:30:09.723Z,26.20
2018-01-30T08:32:38.233Z,24.30
2018-01-30T08:35:06.090Z,23.03
2018-01-30T08:37:33.934Z,21.50
2018-01-30T08:40:01.847Z,19.67
2018-01-30T08:42:30.463Z,19.67
2018-01-30T08:44:58.327Z,21.83
2018-01-30T08:47:26.354Z,22.80
2018-01-30T08:49:54.182Z,23.93
2018-01-30T08:52:22.974Z,21.80
2018-01-30T08:54:50.878Z,22.27
2018-01-30T08:57:18.757Z,20.77
2018-01-30T08:59:47.134Z,22.37
2018-01-30T09:02:15.027Z,22.00
2018-01-30T09:04:42.856Z,21.80
2018-01-30T09:07:10.706Z,21.07
2018-01-30T09:09:38.598Z,21.07
2018-01-30T09:12:06.467Z,21.23
2018-01-30T09:14:34.375Z,21.53
2018-01-30T09:17:02.259Z,19.87
2018-01-30T09:19:30.118Z,21.20
2018-01-30T09:21:57.971Z,20.37
2018-01-30T09:24:25.954Z,19.20
2018-01-30T09:26:53.798Z,20.47
2018-01-30T09:29:21.642Z,19.43
2018-01-30T09:31:49.551Z,21.00
2018-01-30T09:34:17.428Z,18.67
2018-01-30T09:36:45.259Z,19.40
2018-01-30T09:39:13.179Z,18.17
2018-01-30T09:41:41.059Z,17.83
2018-01-30T09:44:08.923Z,18.50
2018-01-30T09:46:37.026Z,17.83
2018-01-30T09:49:05.039Z,17.20
2018-01-30T09:51:32.896Z,16.57
2018-01-30T09:54:00.826Z,20.03
2018-01-30T09:56:28.699Z,14.80
2018-01-30T09:58:56.539Z,15.37
2018-01-30T10:01:24.787Z,15.87
2018-01-30T10:03:52.696Z,15.33
2018-01-30T10:06:20.564Z,14.73
2018-01-30T10:08:48.475Z,15.60
2018-01-30T10:11:16.506Z,13.37
2018-01-30T10:13:44.365Z,11.73
2018-01-30T10:16:12.282Z,11.53
2018-01-30T10:18:40.144Z,12.07
2018-01-30T10:21:08.031Z,11.87
2018-01-30T10:23:36.364Z,11.57
2018-01-30T10:26:04.214Z,11.23
2018-01-30T10:28:32.056Z,10.57
2018-01-30T10:31:00.122Z,10.83
2018-01-30T10:33:27.994Z,10.83
2018-01-30T10:35:55.861Z,11.00
2018-01-30T10:38:23.793Z,11.10
2018-01-30T10:40:51.718Z,11.37
2018-01-30T10:43:19.678Z,11.03
2018-01-30T10:45:47.567Z,11.13
2018-01-30T10:48:15.458Z,11.70
2018-01-30T10:50:43.411Z,9.97
2018-01-30T10:53:11.359Z,11.33
2018-01-30T10:55:39.218Z,11.37
2018-01-30T10:58:07.080Z,12.43
2018-01-30T11:00:35.023Z,11.00
2018-01-30T11:03:02.878Z,10.90
2018-01-30T11:05:30.737Z,10.80
2018-01-30T11:07:58.680Z,10.40
2018-01-30T11:10:26.540Z,11.47
2018-01-30T11:12:54.486Z,10.33
2018-01-30T11:15:22.384Z,11.37
2018-01-30T11:17:50.271Z,10.07
2018-01-30T11:20:18.179Z,11.63
2018-01-30T11:22:46.089Z,10.57
2018-01-30T11:25:13.956Z,9.80
2018-01-30T11:27:41.827Z,9.45
2018-01-30T11:30:09.752Z,10.65
2018-01-30T11:32:37.642Z,10.88
2018-01-30T11:35:05.547Z,9.63
2018-01-30T11:37:33.452Z,9.57
2018-01-30T11:40:01.319Z,10.48
2018-01-30T11:42:29.198Z,11.32
2018-01-30T11:44:57.099Z,10.20
2018-01-30T11:47:24.972Z,10.45
2018-01-30T11:49:52.834Z,9.68
2018-01-30T11:54:49.004Z,8.45
2018-01-30T11:57:17.294Z,9.68
2018-01-30T11:59:45.219Z,7.57
2018-01-30T12:02:13.140Z,11.45
2018-01-30T12:04:41.034Z,10.10
2018-01-30T12:07:08.930Z,11.40
2018-01-30T12:09:36.806Z,9.88
2018-01-30T12:12:04.682Z,9.40
2018-01-30T12:14:33.024Z,8.25
2018-01-30T12:17:00.896Z,9.52
2018-01-30T12:19:28.778Z,9.48
2018-01-30T12:21:56.766Z,9.55
2018-01-30T12:24:24.627Z,9.32
2018-01-30T12:26:52.520Z,7.85
2018-01-30T12:29:20.803Z,7.95
2018-01-30T12:31:48.663Z,7.93
2018-01-30T12:34:16.543Z,7.45
2018-01-30T12:36:44.474Z,6.78
2018-01-30T12:39:12.310Z,6.40
2018-01-30T12:41:40.153Z,9.73
2018-01-30T12:44:08.133Z,10.50
2018-01-30T12:46:36.013Z,9.98
2018-01-30T12:49:03.875Z,2.20
2018-01-30T12:51:31.774Z,6.87
2018-01-30T12:53:59.691Z,3.78
2018-01-30T12:56:27.530Z,2.42
2018-01-30T12:58:55.422Z,2.28
2018-01-30T13:01:23.263Z,2.28
2018-01-30T13:03:51.603Z,2.70
2018-01-30T13:06:19.503Z,3.12
2018-01-30T13:08:47.358Z,2.08
2018-01-30T13:11:15.211Z,2.95
2018-01-30T13:13:43.111Z,2.55
2018-01-30T13:16:10.933Z,3.30
2018-01-30T13:18:38.786Z,2.62
2018-01-30T13:21:06.958Z,2.80
2018-01-30T13:23:34.791Z,2.95
2018-01-30T13:26:02.622Z,2.80
2018-01-30T13:28:30.566Z,2.83
2018-01-30T13:30:58.431Z,2.95
2018-01-30T13:33:26.270Z,2.97
2018-01-30T13:35:54.155Z,3.57
2018-01-30T13:38:22.023Z,2.90
2018-01-30T13:40:49.889Z,3.73
2018-01-30T13:43:19.351Z,3.05
2018-01-30T13:45:48.546Z,3.03
2018-01-30T13:48:17.891Z,3.30
2018-01-30T13:50:46.861Z,3.40
2018-01-30T13:53:15.820Z,3.60
2018-01-30T13:55:44.632Z,3.47
2018-01-30T13:58:13.662Z,2.72
2018-01-30T14:00:41.519Z,3.15
2018-01-30T14:03:09.366Z,3.20
2018-01-30T14:05:37.290Z,3.77
2018-01-30T14:08:05.151Z,3.20
2018-01-30T14:10:32.991Z,3.60
2018-01-30T14:13:01.875Z,3.50
2018-01-30T14:15:29.755Z,3.10
2018-01-30T14:17:57.599Z,3.33
2018-01-30T14:20:25.555Z,3.33
2018-01-30T14:22:53.415Z,3.00
2018-01-30T14:25:21.239Z,3.20
2018-01-30T14:27:49.143Z,3.00
2018-01-30T14:30:17.234Z,3.10
2018-01-30T14:32:45.134Z,3.13
2018-01-30T14:35:13.289Z,2.60
2018-01-30T14:37:41.778Z,2.73
2018-01-30T14:40:09.694Z,2.40
2018-01-30T14:42:37.595Z,2.97
2018-01-30T14:45:05.451Z,2.30
2018-01-30T14:47:33.311Z,2.63
2018-01-30T14:50:02.216Z,3.00
2018-01-30T14:52:30.064Z,2.97
2018-01-30T14:54:57.919Z,2.90
2018-01-30T14:57:25.915Z,2.90
2018-01-30T14:59:53.752Z,2.60
2018-01-30T15:02:21.594Z,3.47
2018-01-30T15:04:49.502Z,3.00
2018-01-30T15:07:17.432Z,2.77
2018-01-30T15:09:45.286Z,2.50
2018-01-30T15:12:13.421Z,2.93
2018-01-30T15:14:41.256Z,2.67
2018-01-30T15:17:09.114Z,2.50
2018-01-30T15:19:37.050Z,3.00
2018-01-30T15:22:05.811Z,3.30
2018-01-30T15:24:33.681Z,3.50
2018-01-30T15:27:02.478Z,3.40
2018-01-30T15:29:30.322Z,3.27
2018-01-30T15:31:58.192Z,3.20
2018-01-30T15:34:26.106Z,3.07
2018-01-30T15:36:53.959Z,3.13
2018-01-30T15:39:21.814Z,5.93
2018-01-30T15:41:49.702Z,3.17
2018-01-30T15:44:17.588Z,3.77
2018-01-30T15:46:45.417Z,3.17
2018-01-30T15:49:13.294Z,3.43
2018-01-30T15:51:41.938Z,3.83
2018-01-30T15:54:10.729Z,3.33
2018-01-30T15:56:38.738Z,3.77
2018-01-30T15:59:06.666Z,3.10
2018-01-30T16:01:34.526Z,2.83
2018-01-30T16:04:02.403Z,3.10
2018-01-30T16:06:30.252Z,3.27
2018-01-30T16:08:58.098Z,3.00
2018-01-30T16:11:26.906Z,3.27
2018-01-30T16:13:54.746Z,3.50
2018-01-30T16:16:22.587Z,3.37
2018-01-30T16:18:50.500Z,3.17
2018-01-30T16:21:18.350Z,3.40
2018-01-30T16:23:46.219Z,3.30
2018-01-30T16:26:14.127Z,2.90
2018-01-30T16:28:41.998Z,3.27
2018-01-30T16:31:09.843Z,3.37
2018-01-30T16:33:38.751Z,4.13
2018-01-30T16:36:06.607Z,4.67
2018-01-30T16:38:34.438Z,3.83
2018-01-30T16:41:02.340Z,2.90
2018-01-30T16:43:30.187Z,3.57
2018-01-30T16:45:58.038Z,3.03
2018-01-30T16:48:25.967Z,3.00
2018-01-30T16:50:53.899Z,6.07
2018-01-30T16:53:21.805Z,4.30
2018-01-30T16:55:49.743Z,3.30
2018-01-30T16:58:17.629Z,3.43
2018-01-30T17:00:45.601Z,4.43
2018-01-30T17:03:13.491Z,3.40
2018-01-30T17:05:41.360Z,2.90
2018-01-30T17:08:09.207Z,3.67
2018-01-30T17:10:37.122Z,3.27
2018-01-30T17:13:04.971Z,3.00
2018-01-30T17:15:32.830Z,4.33
2018-01-30T17:18:00.732Z,2.87
2018-01-30T17:20:28.563Z,2.63
2018-01-30T17:22:56.410Z,2.30
2018-01-30T17:25:24.582Z,2.13
2018-01-30T17:27:52.604Z,1.93
2018-01-30T17:30:20.473Z,2.23
2018-01-30T17:32:48.886Z,2.40
2018-01-30T17:35:16.743Z,3.30
2018-01-30T17:37:44.600Z,2.77
2018-01-30T17:40:12.555Z,3.30
2018-01-30T17:42:40.419Z,2.50
2018-01-30T17:45:08.247Z,2.27
2018-01-30T17:47:36.151Z,4.73
2018-01-30T17:50:04.105Z,1.63
2018-01-30T17:52:31.947Z,2.00
2018-01-30T17:54:59.819Z,2.10
2018-01-30T17:57:28.489Z,2.03
2018-01-30T17:59:56.331Z,2.30
2018-01-30T18:02:24.395Z,2.10
2018-01-30T18:04:52.275Z,2.10
2018-01-30T18:07:20.116Z,4.07
2018-01-30T18:09:48.286Z,2.50
2018-01-30T18:12:16.169Z,2.40
2018-01-30T18:14:44.083Z,2.10
2018-01-30T18:17:11.946Z,2.20
2018-01-30T18:19:39.802Z,2.57
2018-01-30T18:22:07.652Z,3.07
2018-01-30T18:24:35.575Z,3.00
2018-01-30T18:27:03.526Z,2.50
2018-01-30T18:29:31.359Z,2.53
2018-01-30T18:31:59.240Z,2.50
2018-01-30T18:34:27.106Z,2.43
2018-01-30T18:36:54.947Z,2.60
2018-01-30T18:39:23.035Z,3.33
2018-01-30T18:41:50.866Z,3.43
2018-01-30T18:44:18.702Z,3.00
2018-01-30T18:46:46.590Z,3.40
2018-01-30T18:49:14.464Z,4.40
2018-01-30T18:51:42.318Z,4.50
2018-01-30T18:54:10.226Z,5.13
2018-01-30T18:56:38.074Z,5.53
2018-01-30T18:59:05.911Z,6.57
2018-01-30T19:01:33.844Z,3.57
2018-01-30T19:04:02.538Z,5.50
2018-01-30T19:06:30.388Z,4.00
2018-01-30T19:08:58.854Z,3.83
2018-01-30T19:11:26.705Z,4.90
2018-01-30T19:13:54.528Z,3.80
2018-01-30T19:16:22.681Z,4.03
2018-01-30T19:18:50.541Z,4.50
2018-01-30T19:21:19.043Z,4.37
2018-01-30T19:23:46.975Z,4.50
2018-01-30T19:26:14.839Z,4.47
2018-01-30T19:28:42.710Z,4.20
2018-01-30T19:31:10.621Z,4.50
2018-01-30T19:33:38.478Z,4.43
2018-01-30T19:36:06.310Z,4.20
2018-01-30T19:38:34.338Z,4.43
2018-01-30T19:41:02.187Z,4.23
2018-01-30T19:43:30.038Z,4.60
2018-01-30T19:45:57.968Z,4.80
2018-01-30T19:48:25.842Z,4.20
2018-01-30T19:50:53.690Z,4.80
2018-01-30T19:53:21.623Z,4.27
2018-01-30T19:55:49.498Z,4.70
2018-01-30T19:58:17.419Z,4.40
2018-01-30T20:00:45.350Z,4.60
2018-01-30T20:03:13.275Z,5.07
2018-01-30T20:05:41.442Z,3.93
2018-01-30T20:08:09.425Z,4.20
2018-01-30T20:10:37.391Z,3.37
2018-01-30T20:13:05.289Z,3.57
2018-01-30T20:15:33.257Z,3.80
2018-01-30T20:18:01.159Z,4.10
2018-01-30T20:20:29.136Z,4.20
2018-01-30T20:22:57.074Z,6.20
2018-01-30T20:25:25.020Z,3.87
2018-01-30T20:27:52.918Z,3.63
2018-01-30T20:30:21.485Z,3.50
2018-01-30T20:32:49.350Z,3.70
2018-01-30T20:35:17.323Z,3.50
2018-01-30T20:37:47.006Z,3.73
2018-01-30T20:40:15.227Z,3.57
2018-01-30T20:42:43.074Z,3.97
2018-01-30T20:45:11.028Z,3.30
2018-01-30T20:47:38.897Z,3.27
2018-01-30T20:50:06.763Z,3.80
2018-01-30T20:52:34.658Z,3.57
2018-01-30T20:55:02.502Z,3.57
2018-01-30T20:57:30.395Z,3.30
2018-01-30T20:59:58.603Z,3.43
2018-01-30T21:02:26.531Z,3.50
2018-01-30T21:04:54.428Z,3.13
2018-01-30T21:07:22.552Z,3.03
2018-01-30T21:09:50.435Z,3.53
2018-01-30T21:12:18.302Z,3.07
2018-01-30T21:14:46.307Z,3.00
2018-01-30T21:17:14.169Z,3.20
2018-01-30T21:19:42.107Z,3.00
2018-01-30T21:22:10.148Z,3.13
2018-01-30T21:24:38.095Z,3.33
2018-01-30T21:27:06.185Z,3.50
2018-01-30T21:29:34.368Z,3.20
2018-01-30T21:32:02.210Z,7.17
2018-01-30T21:34:30.049Z,4.27
2018-01-30T21:36:58.050Z,4.23
2018-01-30T21:39:25.964Z,4.50
2018-01-30T21:41:53.816Z,5.27
2018-01-30T21:44:22.075Z,5.97
2018-01-30T21:46:50.494Z,5.63
2018-01-30T21:49:18.424Z,5.80
2018-01-30T21:51:46.318Z,6.43
2018-01-30T21:54:18.398Z,6.30
2018-01-30T21:56:42.098Z,6.60
2018-01-30T21:59:09.991Z,10.73
2018-01-30T22:01:37.827Z,10.50
2018-01-30T22:04:05.669Z,7.83
2018-01-30T22:06:33.551Z,6.40
2018-01-30T22:09:01.479Z,5.30
2018-01-30T22:11:29.306Z,4.90
2018-01-30T22:13:57.220Z,4.83
2018-01-30T22:16:25.067Z,4.10
2018-01-30T22:18:52.939Z,3.70
2018-01-30T22:21:20.839Z,3.80
2018-01-30T22:23:48.702Z,3.30
2018-01-30T22:26:16.559Z,3.47
2018-01-30T22:28:45.424Z,3.10
2018-01-30T22:31:12.609Z,3.17
2018-01-30T22:33:40.453Z,3.23
2018-01-30T22:36:08.365Z,3.00
2018-01-30T22:38:36.240Z,2.90
2018-01-30T22:41:05.003Z,2.80
2018-01-30T22:43:32.994Z,2.67
2018-01-30T22:46:00.898Z,2.80
